Latest Coastal Weather Observations for Kowanyama

IDQ60701

Issued at 7:25 pm EST Friday 30 January 2015 (issued every 10 minutes, with the page automatically refreshed every 10 minutes)

About coastal observations | Map of coastal stations | Coastal observations for QLD | Marine services | Other Formats
Station Details ID: 029038 Name: KOWANYAMA AIRPORT Lat: -15.48 Lon: 141.75 Height: 9.6 m
Data from the previous 72 hours. | See also: Recent months at Kowanyama
Date/Time
EST
Temp

°C
Wind Pressure Rain
since 9am
mm
Weather Cloud Vis
km
Sea
Height
m
Swell
Dir
 
Speed
knots
Gust
knots
hPa Trend Height
m
Period
s
Dir
30/07:00pm 29.7 NW 5 8 1005.5 - 0.0 - - - - - - -
30/06:30pm 30.7 WNW 8 10 1005.3 - 0.0 - - - - - - -
30/06:00pm 31.3 WNW 10 13 1005.2 - 0.0 - Cloudy - - - - -
30/05:30pm 31.3 WNW 10 14 1005.0 - 0.0 - Partly cloudy - - - - -
30/05:00pm 31.6 WNW 9 11 1004.7 - 0.0 - - - - - - -
30/04:30pm 32.5 NW 9 12 1004.6 - 0.0 - - - - - - -
30/04:00pm 32.6 NW 10 14 1004.5 - 0.0 - Partly cloudy - - - - -
30/03:30pm 32.7 WNW 10 15 1004.7 - 0.0 - Partly cloudy - - - - -
30/03:00pm 32.4 WNW 11 16 1004.9 - 0.0 - Cloudy - - - - -
30/02:30pm 32.8 NW 10 15 1005.0 - 0.0 - - - - - - -
30/02:00pm 32.8 NW 9 13 1005.4 - 0.0 - Partly cloudy - - - - -
30/01:30pm 32.3 NW 9 13 1005.5 - 0.0 - Partly cloudy - - - - -
30/01:00pm 33.0 NW 10 15 1005.7 - 0.0 - Partly cloudy - - - - -
30/12:30pm 32.8 NW 11 16 1005.9 - 0.0 - Partly cloudy - - - - -
30/12:00pm 32.6 NW 10 13 1006.0 - 0.0 - Cloudy - - - - -
30/11:30am 32.2 NW 10 14 1006.4 - 0.0 - Partly cloudy - - - - -
30/11:00am 32.3 WNW 10 15 1006.6 - 0.0 - - - - - - -
30/10:30am 31.3 WNW 10 15 1006.8 - 0.0 - Partly cloudy - - - - -
30/10:00am 31.1 WNW 9 13 1006.7 - 0.0 - Partly cloudy - - - - -
30/09:30am 30.8 NW 9 12 1006.4 - 0.0 - - - - - - -
30/09:00am 30.3 NW 7 11 1006.2 - 0.0 - - - - - - -
30/08:30am 29.2 NW 5 9 1006.1 - 0.0 - - - - - - -
30/08:00am 27.9 NNW 3 6 1006.1 - 0.0 - - - - - - -
30/07:30am 26.5 NW 1 4 1005.9 - 0.0 - - - - - - -
30/07:00am 25.4 N 1 4 1005.5 - 0.0 - - - - - - -
30/06:30am 24.5 CALM 0 0 1005.3 - 0.0 - - - - - - -
30/06:00am 24.5 N 1 3 1004.9 - 0.0 - - - - - - -
30/05:30am 24.8 NNW 2 3 1004.6 - 0.0 - - - - - - -
30/05:00am 25.0 NNW 2 4 1004.5 - 0.0 - - - - - - -
30/04:30am 25.0 NNW 3 5 1004.5 - 0.0 - - - - - - -
30/04:00am 24.8 NW 3 5 1004.3 - 0.0 - - - - - - -
30/03:30am 24.6 N 2 4 1004.3 - 0.0 - - - - - - -
30/03:00am 24.5 N 2 4 1004.4 - 0.0 - - - - - - -
30/02:30am 24.6 CALM 0 0 1004.5 - 0.0 - - - - - - -
30/02:00am 24.9 NNW 1 3 1004.6 - 0.0 - - - - - - -
30/01:30am 25.5 NW 3 4 1004.8 - 0.0 - - - - - - -
30/01:00am 26.0 NW 4 5 1005.0 - 0.0 - - - - - - -
30/12:30am 26.0 NW 3 6 1005.3 - 0.0 - - - - - - -
30/12:00am 25.9 NW 1 3 1005.5 - 0.0 - - - - - - -
 
Date/Time
EST
Temp

°C
Wind Pressure Rain
since 9am
mm
Weather Cloud Vis
km
Sea
Height
m
Swell
Dir
 
Speed
knots
Gust
knots
hPa Trend Height
m
Period
s
Dir
29/11:30pm 26.0 NNW 3 4 1005.7 - 0.0 - - - - - - -
29/11:00pm 26.3 NW 3 4 1005.7 - 0.0 - - - - - - -
29/10:30pm 26.9 WNW 3 4 1005.7 - 0.0 - - - - - - -
29/10:00pm 27.0 WNW 4 5 1005.3 - 0.0 - - - - - - -
29/09:30pm 27.0 W 5 5 1005.2 - 0.0 - - - - - - -
29/09:00pm 27.2 W 4 5 1005.2 - 0.0 - - - - - - -
29/08:30pm 27.8 W 5 6 1005.0 - 0.0 - - - - - - -
29/08:00pm 27.9 W 5 7 1004.8 - 0.0 - - - - - - -
29/07:30pm 28.6 W 4 5 1004.5 - 0.0 - - - - - - -
29/07:00pm 29.3 W 5 6 1004.3 - 0.0 - - - - - - -
29/06:30pm 30.5 WSW 7 9 1004.2 - 0.0 - - - - - - -
29/06:00pm 30.8 WSW 6 10 1004.0 - 0.0 - - - - - - -
29/05:30pm 31.2 WSW 9 11 1003.7 - 0.0 - Partly cloudy - - - - -
29/05:00pm 31.9 W 9 13 1003.5 - 0.0 - - - - - - -
29/04:30pm 32.2 WNW 10 14 1003.2 - 0.0 - - - - - - -
29/04:00pm 32.5 WNW 10 14 1003.4 - 0.0 - Partly cloudy - - - - -
29/03:30pm 33.0 WNW 9 13 1003.5 - 0.0 - Partly cloudy - - - - -
29/03:00pm 33.0 WNW 11 15 1003.6 - 0.0 - - - - - - -
29/02:30pm 33.0 WNW 10 14 1003.5 - 0.0 - - - - - - -
29/02:00pm 32.5 WNW 10 13 1003.6 - 0.0 - - - - - - -
29/01:30pm 33.0 WNW 9 14 1004.1 - 0.0 - - - - - - -
29/01:00pm 32.8 W 10 15 1004.3 - 0.0 - - - - - - -
29/12:30pm 32.8 WNW 10 13 1004.7 - 0.0 - Partly cloudy - - - - -
29/12:00pm 32.4 WNW 9 13 1005.1 - 0.0 - - - - - - -
29/11:30am 32.5 W 10 13 1005.2 - 0.0 - - - - - - -
29/11:00am 32.3 NW 7 11 1005.4 - 0.0 - - - - - - -
29/10:30am 32.0 WNW 8 12 1005.5 - 0.0 - Partly cloudy - - - - -
29/10:00am 31.2 WNW 8 10 1005.4 - 0.0 - - - - - - -
29/09:30am 30.3 NNW 5 8 1005.4 - 0.0 - Partly cloudy - - - - -
29/09:00am 29.0 NNW 4 6 1005.2 - 0.0 - - - - - - -
29/08:30am 27.8 N 3 4 1004.9 - 0.0 - Partly cloudy - - - - -
29/08:25am 27.4 N 3 4 1004.8 - 0.0 - Partly cloudy - - - - -
29/08:00am 26.0 N 4 5 1004.6 - 0.0 - Cloudy - - - - -
29/07:36am 25.7 N 2 4 1004.2 - 0.0 - Partly cloudy - - - - -
29/07:30am 25.5 CALM 0 3 1004.2 - 0.0 - Partly cloudy - - - - -
29/07:00am 23.9 CALM 0 0 1004.0 - 0.0 - - - - - - -
29/06:30am 23.2 CALM 0 0 1003.6 - 0.0 - - - - - - -
29/06:00am 23.2 CALM 0 0 1003.2 - 0.0 - - - - - - -
29/05:30am 23.2 CALM 0 0 1002.9 - 0.0 - - - - - - -
29/05:00am 23.2 CALM 0 0 1002.8 - 0.0 - - - - - - -
29/04:30am 23.3 CALM 0 0 1002.6 - 0.0 - - - - - - -
29/04:00am 23.1 N 2 4 1002.4 - 0.0 - - - - - - -
29/03:30am 23.2 CALM 0 0 1002.4 - 0.0 - - - - - - -
29/03:00am 23.3 CALM 0 0 1002.3 - 0.0 - - - - - - -
29/02:30am 23.3 CALM 0 0 1002.6 - 0.0 - - - - - - -
29/02:00am 23.3 CALM 0 0 1002.9 - 0.0 - - - - - - -
29/01:30am 23.4 N 2 4 1003.1 - 0.0 - - - - - - -
29/01:00am 23.7 N 2 3 1003.4 - 0.0 - - - - - - -
29/12:30am 24.3 CALM 0 0 1003.8 - 0.0 - - - - - - -
29/12:00am 24.0 N 3 4 1004.4 - 0.0 - - - - - - -
 
Date/Time
EST
Temp

°C
Wind Pressure Rain
since 9am
mm
Weather Cloud Vis
km
Sea
Height
m
Swell
Dir
 
Speed
knots
Gust
knots
hPa Trend Height
m
Period
s
Dir
28/11:30pm 24.3 NNW 3 3 1004.6 - 0.0 - - - - - - -
28/11:00pm 24.7 NW 2 4 1004.7 - 0.0 - - - - - - -
28/10:30pm 24.5 CALM 0 0 1004.6 - 0.0 - - - - - - -
28/10:00pm 24.9 NNW 3 4 1004.5 - 0.0 - - - - - - -
28/09:30pm 25.9 NW 3 4 1004.0 - 0.0 - - - - - - -
28/09:00pm 26.7 NW 4 5 1003.9 - 0.0 - - - - - - -
28/08:30pm 27.1 WNW 4 5 1003.7 - 0.0 - - - - - - -
28/08:00pm 27.4 WNW 3 4 1003.4 - 0.0 - - - - - - -
28/07:30pm 28.7 NW 3 5 1003.2 - 0.0 - - - - - - -
28/07:00pm 29.5 W 5 7 1003.0 - 0.0 - - - - - - -
28/06:30pm 31.0 W 7 9 1002.6 - 0.0 - - - - - - -
28/06:00pm 31.7 WNW 7 10 1002.1 - 0.0 - - - - - - -
28/05:30pm 32.7 W 8 9 1001.9 - 0.0 - - - - - - -
28/05:00pm 33.1 W 8 12 1001.4 - 0.0 - - - - - - -
28/04:30pm 33.2 W 10 13 1001.1 - 0.0 - - - - - - -
28/04:00pm 33.2 W 10 13 1001.0 - 0.0 - - - - - - -
28/03:30pm 33.7 WNW 10 13 1001.2 - 0.0 - - - - - - -
28/03:00pm 33.8 W 8 11 1001.0 - 0.0 - - - - - - -
28/02:30pm 33.6 W 9 11 1001.3 - 0.0 - - - - - - -
28/02:00pm 33.3 W 9 13 1001.7 - 0.0 - Partly cloudy - - - - -
28/01:30pm 32.9 WSW 7 11 1001.8 - 0.0 - Partly cloudy - - - - -
28/01:00pm 32.7 SW 6 9 1002.0 - 0.0 - Partly cloudy - - - - -
28/12:30pm 33.1 W 8 11 1002.6 - 0.0 - Partly cloudy - - - - -
28/12:00pm 33.1 W 7 12 1003.0 - 0.0 - Cloudy - - - - -
28/11:30am 32.7 WSW 8 12 1003.4 - 0.0 - Partly cloudy - - - - -
28/11:00am 31.5 WSW 9 13 1003.9 - 0.0 - Partly cloudy - - - - -
28/10:30am 32.2 WSW 8 11 1004.2 - 0.0 - - - - - - -
28/10:00am 31.1 WNW 7 10 1004.4 - 0.0 - Partly cloudy - - - - -
28/09:30am 31.2 WSW 7 12 1004.3 - 0.0 - Partly cloudy - - - - -
28/09:00am 30.7 W 7 9 1004.1 - 0.2 - Cloudy - - - - -
28/08:30am 29.8 W 6 9 1003.7 - 0.2 - - - - - - -
28/08:00am 29.1 NW 4 6 1003.6 - 0.2 - - - - - - -
28/07:30am 28.0 NW 2 4 1003.3 - 0.2 - - - - - - -
28/07:00am 27.1 CALM 0 0 1003.1 - 0.2 - - - - - - -
28/06:30am 26.3 CALM 0 0 1003.0 - 0.2 - - - - - - -
28/06:00am 26.5 CALM 0 4 1002.8 - 0.2 - Cloudy - - - - -
28/05:30am 26.7 NNW 1 3 1002.4 - 0.2 - - - - - - -
28/05:00am 26.8 NNW 3 3 1002.3 - 0.2 - - - - - - -
28/04:30am 26.7 CALM 0 0 1002.1 - 0.2 - - - - - - -
28/04:00am 26.9 CALM 0 0 1002.1 - 0.2 - - - - - - -
28/03:30am 27.1 CALM 0 0 1002.1 - 0.2 - - - - - - -
28/03:00am 27.2 CALM 0 0 1002.6 - 0.2 - Cloudy - - - - -
28/02:30am 27.3 N 3 4 1002.7 - 0.2 - - - - - - -
28/02:00am 27.5 NNW 1 3 1003.0 - 0.2 - - - - - - -
28/01:30am 27.5 NW 3 4 1003.2 - 0.2 - - - - - - -
28/01:00am 27.5 NNW 2 4 1003.5 - 0.2 - - - - - - -
28/12:30am 27.3 N 1 4 1003.5 - 0.2 - - - - - - -
28/12:00am 27.5 NNW 2 4 1003.7 - 0.2 - Cloudy - - - - -
 
Date/Time
EST
Temp

°C
Wind Pressure Rain
since 9am
mm
Weather Cloud Vis
km
Sea
Height
m
Swell
Dir
 
Speed
knots
Gust
knots
hPa Trend Height
m
Period
s
Dir
27/11:30pm 27.2 NNW 2 4 1004.0 - 0.2 - - - - - - -
27/11:00pm 27.4 W 1 3 1004.0 - 0.2 - - - - - - -
27/10:30pm 27.3 CALM 0 0 1004.0 - 0.2 - - - - - - -
27/10:00pm 27.8 CALM 0 2 1004.0 - 0.2 - - - - - - -
27/09:30pm 28.2 NW 2 4 1003.8 - 0.2 - - - - - - -
27/09:00pm 28.4 WNW 4 5 1003.8 - 0.2 - - - - - - -
27/08:30pm 28.7 WNW 5 6 1003.6 - 0.2 - - - - - - -
27/08:00pm 29.1 NW 4 5 1003.4 - 0.2 - - - - - - -
27/07:30pm 29.5 WNW 5 6 1003.0 - 0.2 - - - - - - -

Other Formats:

Comma delimited format used in spreadsheet applications
http://www.bom.gov.au/fwo/IDQ60701/IDQ60701.94268.axf

JavaScript Object Notation format (JSON) in row-major order
http://www.bom.gov.au/fwo/IDQ60701/IDQ60701.94268.json